Williamstown, MA (01267)

2:51 PM EDT on September 04, 2015 (GMT -0400)
North Hoosac Rd | | Change Station
CLOSE
Current Station
Personal Weather Station
Location: Williamstown, MA
Elevation: 646 ft
Nearby Weather Stations

Elev 646 ft 42.72 °N, 73.19 °W | Updated 2 minutes ago

Mostly Cloudy
Mostly Cloudy
87.8 °F
Feels Like 88 °F
N
0.0
Wind Variable Wind from NNE

Today
High -- | Low -- °F
--% Chance of Precip.
Yesterday
High -- | Low -- °F
Precip. -- in
6:20 AM 7:22 PM
Waning Gibbous, 57% visible
Pressure 30.17 in
Visibility 10.0 miles
Clouds Mostly Cloudy 4400 ft
Heat Index 88 °F
Dew Point 62 °F
Humidity 43%
Rainfall 0.00 in
Snow Depth Not available.
UV 5 out of 12
Pollen 8.80 out of 12
Air Quality Not available.
Flu Activity Not available.
METAR KAQW 041752Z AUTO 09006KT 10SM BKN044 25/15 A3017 RMK AO2 SLP214 T02500150 10250 20200 51005
Pressure 30.17 in
Visibility 10.0 miles
Clouds Mostly Cloudy 4400 ft
Heat Index 88 °F
Dew Point 62 °F
Humidity 43%
Rainfall 0.00 in
Snow Depth Not available.
UV 5 out of 12
Pollen 8.80 out of 12
Air Quality Not available.
Flu Activity Not available.
METAR KAQW 041752Z AUTO 09006KT 10SM BKN044 25/15 A3017 RMK AO2 SLP214 T02500150 10250 20200 51005

10-Day Weather Forecast

×

Almanac

Astronomy

Sep. 04, 2015 Rise Set
Actual Time
Civil Twilight
Nautical Twilight
Astronomical Twilight
Moon
Length of Visible Light
Length of Day
Tomorrow will be .
, % of the Moon is Illuminated

Today's Extremes

State Highs State Lows

Community

WunderPhotos

Upload Photos

1,852,262 photos uploaded!

WunderBlogs® & News

Nearby

Air Quality

  Air Quality AQ Index Pollutant
Not available.

Snow Depth

Station Depth Elevation

Earthquake Activity

City Distance Mag. Time & Date
Minimum magnitude displayed is 2.5.

Coastal Water Temperatures

Place Temperature

Stations

Nearby Weather Stations

Station Location Temp. Windchill Dew Point Humidity Wind Precip. Elev Updated Type